Time;durP1;ratioP1;P1;durP2;ratioP2;P2;SDS_P1;SDS_P2;PMS_P1;PMS_P2;Temp;Humidity;BMP_temperature;BMP_pressure;BME280_temperature;BME280_humidity;BME280_pressure;Samples;Min_cycle;Max_cycle;Signal;HPM_P1;HPM_P2
2020/12/02 00:01:08;;;;;;;;;;;4.40;99.90;;;;;;4987183;28;19917;-75
2020/12/02 00:03:36;;;;;;;;;;;4.30;99.90;;;;;;4987011;28;19939;-76
2020/12/02 00:06:04;;;;;;;;;;;4.30;99.90;;;;;;4987414;28;19925;-74
2020/12/02 00:08:59;;;;;;;;;;;4.30;99.90;;;;;;4987008;28;20372;-76
2020/12/02 00:11:28;;;;;;;;;;;4.30;99.90;;;;;;4976465;28;19914;-76
2020/12/02 00:13:56;;;;;;;;;;;4.30;99.90;;;;;;4988364;28;19922;-76
2020/12/02 00:16:25;;;;;;;;;;;4.30;99.90;;;;;;4985653;28;19918;-77
2020/12/02 00:18:51;;;;;;;;;;;4.30;99.90;;;;;;4987443;28;19917;-73
2020/12/02 00:21:18;;;;;;;;;;;4.20;99.90;;;;;;4981908;28;19920;-73
2020/12/02 00:23:44;;;;;;;;;;;4.10;99.90;;;;;;4983938;28;19921;-76
2020/12/02 00:26:10;;;;;;;;;;;4.10;99.90;;;;;;4986319;28;19921;-76
2020/12/02 00:28:35;;;;;;;;;;;4.00;99.90;;;;;;4987253;28;19914;-76
2020/12/02 00:31:01;;;;;;;;;;;4.00;99.90;;;;;;4983724;28;20443;-74
2020/12/02 00:33:26;;;;;;;;;;;4.00;99.90;;;;;;4986234;28;19945;-75
2020/12/02 00:35:52;;;;;;;;;;;4.00;99.90;;;;;;4985794;28;19993;-76
2020/12/02 00:38:19;;;;;;;;;;;4.00;99.90;;;;;;4986401;28;20286;-76
2020/12/02 00:40:44;;;;;;;;;;;3.90;99.90;;;;;;4984528;28;19921;-75
2020/12/02 00:43:11;;;;;;;;;;;3.90;99.90;;;;;;4986447;28;19917;-76
2020/12/02 00:45:36;;;;;;;;;;;3.90;99.90;;;;;;4982364;28;19914;-75
2020/12/02 00:48:02;;;;;;;;;;;3.90;99.90;;;;;;4987861;28;20419;-72
2020/12/02 00:50:28;;;;;;;;;;;3.90;99.90;;;;;;4985246;28;19921;-75
2020/12/02 00:52:57;;;;;;;;;;;3.80;99.90;;;;;;4983855;28;19917;-74
2020/12/02 00:55:22;;;;;;;;;;;3.80;99.90;;;;;;4980898;28;19925;-74
2020/12/02 00:57:48;;;;;;;;;;;3.80;99.90;;;;;;4987513;28;20387;-75
2020/12/02 01:00:15;;;;;;;;;;;3.80;99.90;;;;;;4986831;28;20031;-74
2020/12/02 01:02:40;;;;;;;;;;;3.80;99.90;;;;;;4987149;28;20370;-75
2020/12/02 01:05:10;;;;;;;;;;;3.80;99.90;;;;;;4987563;28;19957;-76
2020/12/02 01:07:38;;;;;;;;;;;3.80;99.90;;;;;;4986420;28;19928;-75
2020/12/02 01:10:04;;;;;;;;;;;3.70;99.90;;;;;;4985019;28;20424;-75
2020/12/02 01:12:30;;;;;;;;;;;3.70;99.90;;;;;;4989007;28;19945;-74
2020/12/02 01:14:55;;;;;;;;;;;3.70;99.90;;;;;;4990486;28;19986;-75
2020/12/02 01:17:21;;;;;;;;;;;3.70;99.90;;;;;;4991080;28;19914;-75
2020/12/02 01:19:46;;;;;;;;;;;3.70;99.90;;;;;;4989258;28;20423;-74
2020/12/02 01:22:32;;;;;;;;;;;3.60;99.90;;;;;;4990195;28;19937;-74
2020/12/02 01:25:04;;;;;;;;;;;3.70;99.90;;;;;;4983053;28;19922;-76
2020/12/02 01:27:32;;;;;;;;;;;3.60;99.90;;;;;;4984109;28;19913;-75
2020/12/02 01:29:57;;;;;;;;;;;3.60;99.90;;;;;;4989105;28;19921;-77
2020/12/02 01:32:23;;;;;;;;;;;3.50;99.90;;;;;;4989097;28;19918;-76
2020/12/02 01:34:50;;;;;;;;;;;3.50;99.90;;;;;;4990303;28;19922;-75
2020/12/02 01:37:35;;;;;;;;;;;3.50;99.90;;;;;;4989051;28;19948;-74
2020/12/02 01:40:00;;;;;;;;;;;3.50;99.90;;;;;;4990219;28;19928;-75
2020/12/02 01:42:26;;;;;;;;;;;3.60;99.90;;;;;;4991359;28;19914;-76
2020/12/02 01:44:51;;;;;;;;;;;3.60;99.90;;;;;;4990023;28;20344;-74
2020/12/02 01:47:23;;;;;;;;;;;3.60;99.90;;;;;;4989028;28;19914;-73
2020/12/02 01:50:02;;;;;;;;;;;3.50;99.90;;;;;;4985480;28;19921;-76
2020/12/02 01:52:54;;;;;;;;;;;3.50;99.90;;;;;;4990696;28;19917;-75
2020/12/02 01:55:23;;;;;;;;;;;3.60;99.90;;;;;;4974124;28;20338;-75
2020/12/02 01:57:50;;;;;;;;;;;3.50;99.90;;;;;;4989838;28;19918;-76
2020/12/02 02:00:18;;;;;;;;;;;3.50;99.90;;;;;;4985513;28;20482;-74
2020/12/02 02:03:02;;;;;;;;;;;3.50;99.90;;;;;;4990795;28;19914;-76
2020/12/02 02:05:32;;;;;;;;;;;3.60;99.90;;;;;;4990453;28;20370;-75
2020/12/02 02:07:58;;;;;;;;;;;3.50;99.90;;;;;;4990499;28;20822;-76
2020/12/02 02:10:27;;;;;;;;;;;3.50;99.90;;;;;;4989540;28;20008;-75
2020/12/02 02:12:55;;;;;;;;;;;3.50;99.90;;;;;;4990175;28;19921;-75
2020/12/02 02:15:39;;;;;;;;;;;3.50;99.90;;;;;;4990275;28;20294;-77
2020/12/02 02:18:11;;;;;;;;;;;3.50;99.90;;;;;;4990868;28;19979;-78
2020/12/02 02:20:38;;;;;;;;;;;3.50;99.90;;;;;;4986093;28;19925;-77
2020/12/02 02:23:05;;;;;;;;;;;3.50;99.90;;;;;;4988112;28;19926;-75
2020/12/02 02:25:31;;;;;;;;;;;3.60;99.90;;;;;;4990260;28;20020;-77
2020/12/02 02:27:57;;;;;;;;;;;3.60;99.90;;;;;;4987860;28;20434;-77
2020/12/02 02:30:23;;;;;;;;;;;3.60;99.90;;;;;;4987339;28;20017;-77
2020/12/02 02:32:49;;;;;;;;;;;3.60;99.90;;;;;;4988049;28;20020;-75
2020/12/02 02:35:15;;;;;;;;;;;3.60;99.90;;;;;;4988110;28;20012;-78
2020/12/02 02:37:40;;;;;;;;;;;3.60;99.90;;;;;;4989361;28;20458;-74
2020/12/02 02:40:08;;;;;;;;;;;3.60;99.90;;;;;;4989226;28;19914;-75
2020/12/02 02:42:34;;;;;;;;;;;3.60;99.90;;;;;;4988788;28;20370;-74
2020/12/02 02:45:00;;;;;;;;;;;3.60;99.90;;;;;;4989920;28;19943;-75
2020/12/02 02:47:26;;;;;;;;;;;3.60;99.90;;;;;;4989928;28;19959;-75
2020/12/02 02:49:51;;;;;;;;;;;3.60;99.90;;;;;;4987856;28;19921;-78
2020/12/02 02:52:17;;;;;;;;;;;3.70;99.90;;;;;;4989720;28;20354;-77
2020/12/02 02:54:43;;;;;;;;;;;3.70;99.90;;;;;;4989569;28;19921;-77
2020/12/02 02:57:08;;;;;;;;;;;3.70;99.90;;;;;;4990608;28;19963;-75
2020/12/02 02:59:34;;;;;;;;;;;3.70;99.90;;;;;;4989353;28;20267;-75
2020/12/02 03:02:00;;;;;;;;;;;3.70;99.90;;;;;;4987118;28;19914;-75
2020/12/02 03:04:25;;;;;;;;;;;3.70;99.90;;;;;;4990374;28;19916;-75
2020/12/02 03:06:51;;;;;;;;;;;3.70;99.90;;;;;;4990136;28;19953;-75
2020/12/02 03:09:17;;;;;;;;;;;3.70;99.90;;;;;;4988414;28;19931;-73
2020/12/02 03:11:42;;;;;;;;;;;3.70;99.90;;;;;;4984654;28;19910;-74
2020/12/02 03:14:09;;;;;;;;;;;3.70;99.90;;;;;;4989734;28;20016;-75
2020/12/02 03:16:36;;;;;;;;;;;3.70;99.90;;;;;;4989978;28;19909;-77
2020/12/02 03:19:13;;;;;;;;;;;3.70;99.90;;;;;;4987701;28;19914;-75
2020/12/02 03:21:39;;;;;;;;;;;3.60;99.90;;;;;;4984318;28;19961;-75
2020/12/02 03:24:05;;;;;;;;;;;3.70;99.90;;;;;;4989304;28;19953;-76
2020/12/02 03:26:31;;;;;;;;;;;3.70;99.90;;;;;;4987687;28;20012;-74
2020/12/02 03:28:56;;;;;;;;;;;3.70;99.90;;;;;;4986723;28;20438;-78
2020/12/02 03:31:22;;;;;;;;;;;3.70;99.90;;;;;;4986586;28;20382;-74
2020/12/02 03:33:48;;;;;;;;;;;3.60;99.90;;;;;;4983114;28;19917;-76
2020/12/02 03:36:14;;;;;;;;;;;3.60;99.90;;;;;;4976533;28;20416;-77
2020/12/02 03:38:40;;;;;;;;;;;3.70;99.90;;;;;;4989292;28;20517;-75
2020/12/02 03:41:06;;;;;;;;;;;3.60;99.90;;;;;;4989171;28;20004;-77
2020/12/02 03:43:31;;;;;;;;;;;3.60;99.90;;;;;;4988656;28;19920;-73
2020/12/02 03:45:57;;;;;;;;;;;3.60;99.90;;;;;;4987198;28;19914;-77
2020/12/02 03:48:23;;;;;;;;;;;3.60;99.90;;;;;;4989096;28;19949;-78
2020/12/02 03:50:48;;;;;;;;;;;3.60;99.90;;;;;;4989407;28;19910;-74
2020/12/02 03:53:14;;;;;;;;;;;3.60;99.90;;;;;;4988951;28;20005;-75
2020/12/02 03:55:40;;;;;;;;;;;3.60;99.90;;;;;;4988899;28;19918;-78
2020/12/02 03:58:05;;;;;;;;;;;3.60;99.90;;;;;;4988982;28;20021;-77
2020/12/02 04:00:31;;;;;;;;;;;3.60;99.90;;;;;;4989206;28;19933;-78
2020/12/02 04:02:57;;;;;;;;;;;3.60;99.90;;;;;;4986301;28;19910;-75
2020/12/02 04:05:23;;;;;;;;;;;3.60;99.90;;;;;;4987766;28;20038;-74
2020/12/02 04:07:49;;;;;;;;;;;3.50;99.90;;;;;;4988659;28;20012;-76
2020/12/02 04:10:14;;;;;;;;;;;3.40;99.90;;;;;;4988810;28;20412;-76
2020/12/02 04:12:42;;;;;;;;;;;3.40;99.90;;;;;;4987501;28;20370;-76
2020/12/02 04:15:07;;;;;;;;;;;3.30;99.90;;;;;;4988454;28;19929;-76
2020/12/02 04:17:33;;;;;;;;;;;3.30;99.90;;;;;;4988867;28;19925;-74
2020/12/02 04:19:58;;;;;;;;;;;3.30;99.90;;;;;;4988102;28;19910;-76
2020/12/02 04:22:24;;;;;;;;;;;3.30;99.90;;;;;;4988198;28;20000;-76
2020/12/02 04:24:50;;;;;;;;;;;3.20;99.90;;;;;;4987348;28;19926;-76
2020/12/02 04:27:16;;;;;;;;;;;3.30;99.90;;;;;;4987298;28;19917;-75
2020/12/02 04:29:42;;;;;;;;;;;3.30;99.90;;;;;;4988471;28;19914;-76
2020/12/02 04:32:07;;;;;;;;;;;3.30;99.90;;;;;;4988113;28;20387;-76
2020/12/02 04:34:33;;;;;;;;;;;3.20;99.90;;;;;;4987025;28;19922;-76
2020/12/02 04:36:58;;;;;;;;;;;3.30;99.90;;;;;;4980041;28;19914;-76
2020/12/02 04:39:24;;;;;;;;;;;3.30;99.90;;;;;;4988289;28;19926;-76
2020/12/02 04:41:50;;;;;;;;;;;3.30;99.90;;;;;;4988689;28;19914;-76
2020/12/02 04:44:16;;;;;;;;;;;3.30;99.90;;;;;;4986501;28;19936;-75
2020/12/02 04:46:42;;;;;;;;;;;3.30;99.90;;;;;;4990458;28;19913;-75
2020/12/02 04:49:17;;;;;;;;;;;3.30;99.90;;;;;;4991723;28;19921;-75
2020/12/02 04:51:42;;;;;;;;;;;3.40;99.90;;;;;;4989198;28;19914;-76
2020/12/02 04:54:08;;;;;;;;;;;3.40;99.90;;;;;;4991933;28;19922;-76
2020/12/02 04:56:35;;;;;;;;;;;3.40;99.90;;;;;;4989620;28;19957;-76
2020/12/02 04:59:01;;;;;;;;;;;3.40;99.90;;;;;;4992214;28;19913;-75
2020/12/02 05:01:29;;;;;;;;;;;3.40;99.90;;;;;;4989651;28;19936;-75
2020/12/02 05:04:05;;;;;;;;;;;3.50;99.90;;;;;;4991460;28;19920;-76
2020/12/02 05:06:51;;;;;;;;;;;3.50;99.90;;;;;;4991579;28;20384;-76
2020/12/02 05:09:18;;;;;;;;;;;3.50;99.90;;;;;;4983408;28;20435;-75
2020/12/02 05:11:55;;;;;;;;;;;3.60;99.90;;;;;;4991053;28;19963;-76
2020/12/02 05:14:20;;;;;;;;;;;3.60;99.90;;;;;;4991013;28;19922;-76
2020/12/02 05:16:56;;;;;;;;;;;3.60;99.90;;;;;;4990765;28;19914;-75
2020/12/02 05:19:22;;;;;;;;;;;3.60;99.90;;;;;;4985482;28;20378;-75
2020/12/02 05:21:47;;;;;;;;;;;3.50;99.90;;;;;;4990168;28;20013;-75
2020/12/02 05:24:14;;;;;;;;;;;3.60;99.90;;;;;;4991017;28;19929;-75
2020/12/02 05:26:42;;;;;;;;;;;3.60;99.90;;;;;;4987767;28;20010;-76
2020/12/02 05:29:26;;;;;;;;;;;3.50;99.90;;;;;;4991235;28;19979;-77
2020/12/02 05:31:59;;;;;;;;;;;3.50;99.90;;;;;;4988091;28;19968;-75
2020/12/02 05:34:30;;;;;;;;;;;3.50;99.90;;;;;;4990064;28;19922;-76
2020/12/02 05:36:56;;;;;;;;;;;3.40;99.90;;;;;;4984685;28;19967;-77
2020/12/02 05:39:34;;;;;;;;;;;3.40;99.90;;;;;;4987432;28;20039;-77
2020/12/02 05:42:01;;;;;;;;;;;3.30;99.90;;;;;;4991000;28;19945;-77
2020/12/02 05:44:30;;;;;;;;;;;3.20;99.90;;;;;;4991145;28;19910;-76
2020/12/02 05:46:57;;;;;;;;;;;3.00;99.90;;;;;;4989707;28;19921;-76
2020/12/02 05:49:37;;;;;;;;;;;3.00;99.90;;;;;;4989903;28;19914;-74
2020/12/02 05:52:03;;;;;;;;;;;3.00;99.90;;;;;;4984602;28;19916;-76
2020/12/02 05:54:32;;;;;;;;;;;2.90;99.90;;;;;;4989644;28;20367;-76
2020/12/02 05:56:58;;;;;;;;;;;2.90;99.90;;;;;;4984298;28;19984;-78
2020/12/02 05:59:24;;;;;;;;;;;2.80;99.90;;;;;;4986076;28;19914;-75
2020/12/02 06:01:51;;;;;;;;;;;2.80;99.90;;;;;;4990410;28;19956;-75
2020/12/02 06:04:17;;;;;;;;;;;2.80;99.90;;;;;;4990519;28;19914;-75
2020/12/02 06:06:52;;;;;;;;;;;2.80;99.90;;;;;;4990187;28;20401;-76
2020/12/02 06:09:18;;;;;;;;;;;2.80;99.90;;;;;;4984657;28;19929;-74
2020/12/02 06:11:43;;;;;;;;;;;2.80;99.90;;;;;;4988792;28;19914;-74
2020/12/02 06:14:13;;;;;;;;;;;2.80;99.90;;;;;;4989674;28;20286;-77
2020/12/02 06:16:41;;;;;;;;;;;2.70;99.90;;;;;;4988542;28;19933;-74
2020/12/02 06:19:19;;;;;;;;;;;2.70;99.90;;;;;;4990752;28;20370;-74
2020/12/02 06:21:46;;;;;;;;;;;2.60;99.90;;;;;;4989735;28;19925;-74
2020/12/02 06:24:13;;;;;;;;;;;2.60;99.90;;;;;;4989923;28;19926;-73
2020/12/02 06:26:41;;;;;;;;;;;2.50;99.90;;;;;;4988366;28;19914;-73
2020/12/02 06:29:14;;;;;;;;;;;2.50;99.90;;;;;;4990201;28;19910;-73
2020/12/02 06:31:40;;;;;;;;;;;2.50;99.90;;;;;;4988140;28;20001;-74
2020/12/02 06:34:20;;;;;;;;;;;2.50;99.90;;;;;;4985135;28;20001;-75
2020/12/02 06:36:59;;;;;;;;;;;2.50;99.90;;;;;;4987412;28;20337;-73
2020/12/02 06:39:26;;;;;;;;;;;2.40;99.90;;;;;;4988087;28;19913;-81
2020/12/02 06:41:52;;;;;;;;;;;2.40;99.90;;;;;;4987364;28;20401;-73
2020/12/02 06:44:34;;;;;;;;;;;2.50;99.90;;;;;;4989845;28;19921;-72
2020/12/02 06:46:59;;;;;;;;;;;2.50;99.90;;;;;;4989306;28;20378;-72
2020/12/02 06:49:30;;;;;;;;;;;2.50;99.90;;;;;;4988267;28;20409;-73
2020/12/02 06:52:00;;;;;;;;;;;2.50;99.90;;;;;;4987808;28;20351;-74
2020/12/02 06:54:29;;;;;;;;;;;2.50;99.90;;;;;;4989602;28;20286;-73
2020/12/02 06:57:01;;;;;;;;;;;2.60;99.90;;;;;;4989236;28;19914;-72
2020/12/02 06:59:26;;;;;;;;;;;2.60;99.90;;;;;;4979469;28;20398;-73
2020/12/02 07:01:58;;;;;;;;;;;2.60;99.90;;;;;;4983638;28;19960;-73
2020/12/02 07:04:23;;;;;;;;;;;2.60;99.90;;;;;;4987120;28;20009;-73
2020/12/02 07:06:59;;;;;;;;;;;2.60;99.90;;;;;;4987887;28;20429;-72
2020/12/02 07:09:25;;;;;;;;;;;2.60;99.90;;;;;;4988422;28;19963;-77
2020/12/02 07:11:56;;;;;;;;;;;2.60;99.90;;;;;;4989921;28;19914;-73
2020/12/02 07:14:43;;;;;;;;;;;2.60;99.90;;;;;;4988429;28;19925;-72
2020/12/02 07:17:10;;;;;;;;;;;2.60;99.90;;;;;;4989970;28;20423;-83
2020/12/02 07:19:37;;;;;;;;;;;2.60;99.90;;;;;;4989803;28;20382;-79
2020/12/02 07:22:06;;;;;;;;;;;2.60;99.90;;;;;;4989400;28;20436;-76
2020/12/02 07:24:43;;;;;;;;;;;2.60;99.90;;;;;;4982924;28;19991;-74
2020/12/02 07:27:08;;;;;;;;;;;2.60;99.90;;;;;;4986716;28;19909;-77
2020/12/02 07:29:34;;;;;;;;;;;2.60;99.90;;;;;;4988884;28;20004;-73
2020/12/02 07:32:04;;;;;;;;;;;2.60;99.90;;;;;;4988621;28;20000;-74
2020/12/02 07:34:30;;;;;;;;;;;2.60;99.90;;;;;;4988661;28;20492;-74
2020/12/02 07:36:58;;;;;;;;;;;2.60;99.90;;;;;;4984876;28;19921;-75
2020/12/02 07:39:24;;;;;;;;;;;2.50;99.90;;;;;;4988089;28;19996;-82
2020/12/02 07:41:57;;;;;;;;;;;2.50;99.90;;;;;;4989299;28;19952;-81
2020/12/02 07:44:23;;;;;;;;;;;2.40;99.90;;;;;;4989634;28;20013;-83
2020/12/02 07:46:50;;;;;;;;;;;2.40;99.90;;;;;;4978739;28;20091;-81
2020/12/02 07:49:16;;;;;;;;;;;2.40;99.90;;;;;;4988825;28;19921;-84
2020/12/02 07:51:44;;;;;;;;;;;2.40;99.90;;;;;;4987488;28;20024;-82
2020/12/02 07:54:16;;;;;;;;;;;2.40;99.90;;;;;;4988891;28;19914;-82
2020/12/02 07:56:43;;;;;;;;;;;2.40;99.90;;;;;;4985991;28;19945;-79
2020/12/02 07:59:19;;;;;;;;;;;2.40;99.90;;;;;;4989015;28;20004;-82
2020/12/02 08:01:53;;;;;;;;;;;2.40;99.90;;;;;;4985971;28;20000;-80
2020/12/02 08:04:19;;;;;;;;;;;2.40;99.90;;;;;;4987437;28;19921;-81
2020/12/02 08:06:54;;;;;;;;;;;2.30;99.90;;;;;;4989513;28;20362;-79
2020/12/02 08:09:20;;;;;;;;;;;2.30;99.90;;;;;;4989684;28;20020;-79
2020/12/02 08:11:56;;;;;;;;;;;2.40;99.90;;;;;;4986556;28;20004;-73
2020/12/02 08:14:36;;;;;;;;;;;2.30;99.90;;;;;;4988021;28;20354;-76
2020/12/02 08:17:09;;;;;;;;;;;2.40;99.90;;;;;;4983187;28;20405;-72
2020/12/02 08:19:36;;;;;;;;;;;2.40;99.90;;;;;;4988767;28;19914;-75
2020/12/02 08:22:02;;;;;;;;;;;2.40;99.90;;;;;;4988201;28;19909;-74
2020/12/02 08:24:37;;;;;;;;;;;2.40;99.90;;;;;;4988873;28;19922;-73
2020/12/02 08:27:03;;;;;;;;;;;2.40;99.90;;;;;;4986414;28;20283;-73
2020/12/02 08:29:30;;;;;;;;;;;2.50;99.90;;;;;;4986247;28;19921;-73
2020/12/02 08:32:01;;;;;;;;;;;2.50;99.90;;;;;;4987491;28;20052;-73
2020/12/02 08:34:29;;;;;;;;;;;2.60;99.90;;;;;;4986775;28;19926;-73
2020/12/02 08:37:10;;;;;;;;;;;2.60;99.90;;;;;;4986890;28;19999;-75
2020/12/02 08:39:36;;;;;;;;;;;2.60;99.90;;;;;;4982632;28;20374;-74
2020/12/02 08:42:02;;;;;;;;;;;2.70;99.90;;;;;;4988534;28;19910;-72
2020/12/02 08:44:27;;;;;;;;;;;2.70;99.90;;;;;;4988647;28;19909;-74
2020/12/02 08:46:58;;;;;;;;;;;2.80;99.90;;;;;;4982217;28;20254;-73
2020/12/02 08:49:27;;;;;;;;;;;2.80;99.90;;;;;;4982936;28;19967;-76
2020/12/02 08:51:53;;;;;;;;;;;2.80;99.90;;;;;;4982528;28;20364;-78
2020/12/02 08:54:22;;;;;;;;;;;2.80;99.90;;;;;;4986882;28;19933;-73
2020/12/02 08:56:48;;;;;;;;;;;2.80;99.90;;;;;;4984707;28;19918;-72
2020/12/02 08:59:13;;;;;;;;;;;2.70;99.90;;;;;;4981760;28;19918;-77
2020/12/02 09:01:39;;;;;;;;;;;2.60;99.90;;;;;;4986871;28;19921;-75
2020/12/02 09:04:05;;;;;;;;;;;2.70;99.90;;;;;;4986405;28;20013;-76
2020/12/02 09:06:31;;;;;;;;;;;2.70;99.90;;;;;;4987491;28;19984;-84
2020/12/02 09:08:57;;;;;;;;;;;2.70;99.90;;;;;;4986179;28;19910;-80
2020/12/02 09:11:25;;;;;;;;;;;2.70;99.90;;;;;;4985642;28;19914;-83
2020/12/02 09:13:50;;;;;;;;;;;2.70;99.90;;;;;;4981681;28;19925;-79
2020/12/02 09:16:19;;;;;;;;;;;2.70;99.90;;;;;;4984696;28;19914;-80
2020/12/02 09:18:45;;;;;;;;;;;2.70;99.90;;;;;;4984937;28;19971;-82
2020/12/02 09:21:11;;;;;;;;;;;2.70;99.90;;;;;;4987704;28;19913;-80
2020/12/02 09:23:36;;;;;;;;;;;2.60;99.90;;;;;;4987871;28;20278;-80
2020/12/02 09:26:02;;;;;;;;;;;2.70;99.90;;;;;;4984996;28;20286;-77
2020/12/02 09:28:27;;;;;;;;;;;2.70;99.90;;;;;;4984463;28;19914;-82
2020/12/02 09:30:53;;;;;;;;;;;2.70;99.90;;;;;;4986819;28;19914;-79
2020/12/02 09:33:18;;;;;;;;;;;2.60;99.90;;;;;;4988461;28;19921;-79
2020/12/02 09:35:44;;;;;;;;;;;2.70;99.90;;;;;;4982707;28;19914;-80
2020/12/02 09:38:10;;;;;;;;;;;2.70;99.90;;;;;;4991703;28;19932;-81
2020/12/02 09:40:36;;;;;;;;;;;2.70;99.90;;;;;;4991006;28;19910;-84
2020/12/02 09:43:10;;;;;;;;;;;2.80;99.90;;;;;;4987850;28;19914;-82
2020/12/02 09:45:45;;;;;;;;;;;2.80;99.90;;;;;;4989936;28;19914;-82
2020/12/02 09:48:13;;;;;;;;;;;2.80;99.90;;;;;;4985695;28;19921;-79
2020/12/02 09:50:38;;;;;;;;;;;2.90;99.90;;;;;;4990658;28;19910;-81
2020/12/02 09:53:13;;;;;;;;;;;2.90;99.90;;;;;;4988074;28;19921;-82
2020/12/02 09:55:38;;;;;;;;;;;3.00;99.90;;;;;;4990127;28;20410;-80
2020/12/02 09:58:04;;;;;;;;;;;3.00;99.90;;;;;;4990691;28;19910;-81
2020/12/02 10:00:29;;;;;;;;;;;3.00;99.90;;;;;;4989136;28;19921;-80
2020/12/02 10:03:15;;;;;;;;;;;3.10;99.90;;;;;;4989947;28;19917;-83
2020/12/02 10:05:59;;;;;;;;;;;3.20;99.90;;;;;;4981209;28;19983;-81
2020/12/02 10:08:28;;;;;;;;;;;3.30;99.90;;;;;;4989405;28;19914;-85
2020/12/02 10:10:56;;;;;;;;;;;3.40;99.90;;;;;;4992753;28;19917;-80
2020/12/02 10:13:35;;;;;;;;;;;3.40;99.90;;;;;;4990288;28;19910;-82
2020/12/02 10:16:04;;;;;;;;;;;3.40;99.90;;;;;;4987114;28;19918;-82
2020/12/02 10:18:38;;;;;;;;;;;3.50;99.90;;;;;;4982468;28;19914;-78
2020/12/02 10:21:24;;;;;;;;;;;3.50;99.90;;;;;;4989162;28;19913;-83
2020/12/02 10:24:01;;;;;;;;;;;3.60;99.90;;;;;;4981523;28;20453;-81
2020/12/02 10:26:45;;;;;;;;;;;3.70;99.90;;;;;;4985196;28;19922;-81
2020/12/02 10:29:31;;;;;;;;;;;3.70;99.90;;;;;;4988594;28;19920;-81
2020/12/02 10:32:12;;;;;;;;;;;3.80;99.90;;;;;;4986793;28;19914;-81
2020/12/02 10:34:41;;;;;;;;;;;3.90;99.90;;;;;;4989328;28;19937;-80
2020/12/02 10:37:10;;;;;;;;;;;3.90;99.90;;;;;;4984808;28;19909;-81
2020/12/02 10:39:35;;;;;;;;;;;3.90;99.90;;;;;;4990206;28;19910;-83
2020/12/02 10:42:25;;;;;;;;;;;3.90;99.90;;;;;;4984253;28;19918;-80
2020/12/02 10:44:50;;;;;;;;;;;4.00;99.90;;;;;;4983949;28;19914;-80
2020/12/02 10:47:22;;;;;;;;;;;4.00;99.90;;;;;;4988971;28;20286;-81
2020/12/02 10:49:47;;;;;;;;;;;4.00;99.90;;;;;;4987999;28;19921;-79
2020/12/02 10:52:17;;;;;;;;;;;3.90;99.90;;;;;;4988445;28;20274;-83
2020/12/02 10:54:45;;;;;;;;;;;4.00;99.90;;;;;;4988511;28;20286;-80
2020/12/02 10:57:17;;;;;;;;;;;3.90;99.90;;;;;;4988636;28;19910;-81
2020/12/02 10:59:44;;;;;;;;;;;3.80;99.90;;;;;;4989517;28;20409;-79
2020/12/02 11:02:17;;;;;;;;;;;3.70;99.90;;;;;;4983873;28;20367;-81
2020/12/02 11:04:45;;;;;;;;;;;3.70;99.90;;;;;;4986098;28;20727;-80
2020/12/02 11:07:12;;;;;;;;;;;3.70;99.90;;;;;;4979747;28;19906;-81
2020/12/02 11:09:56;;;;;;;;;;;3.60;99.90;;;;;;4985595;28;19910;-84
2020/12/02 11:12:40;;;;;;;;;;;3.60;99.90;;;;;;4985515;28;19916;-80
2020/12/02 11:15:25;;;;;;;;;;;3.60;99.90;;;;;;4988035;28;19921;-84
2020/12/02 11:18:00;;;;;;;;;;;3.70;99.90;;;;;;4979207;28;19910;-82
2020/12/02 11:20:41;;;;;;;;;;;3.90;99.90;;;;;;4986979;28;19917;-80
2020/12/02 11:23:13;;;;;;;;;;;4.00;99.90;;;;;;4987103;28;19917;-84
2020/12/02 11:25:59;;;;;;;;;;;4.10;99.90;;;;;;4987494;28;19940;-87
2020/12/02 11:28:24;;;;;;;;;;;4.10;99.90;;;;;;4991216;28;19932;-84
2020/12/02 11:30:50;;;;;;;;;;;4.00;99.90;;;;;;4985511;28;19914;-84
2020/12/02 11:33:33;;;;;;;;;;;4.10;99.90;;;;;;4984049;28;20482;-81
2020/12/02 11:36:10;;;;;;;;;;;4.00;99.90;;;;;;4979615;28;19918;-83
2020/12/02 11:38:43;;;;;;;;;;;4.00;99.90;;;;;;4989366;28;20384;-81
2020/12/02 11:41:17;;;;;;;;;;;3.90;99.90;;;;;;4988619;28;20042;-82
2020/12/02 11:43:48;;;;;;;;;;;3.90;99.90;;;;;;4983463;28;20363;-80
2020/12/02 11:46:15;;;;;;;;;;;4.00;99.90;;;;;;4982458;28;19921;-79
2020/12/02 11:48:42;;;;;;;;;;;4.00;99.90;;;;;;4987681;28;20421;-83
2020/12/02 11:51:29;;;;;;;;;;;4.00;99.90;;;;;;4990211;28;19910;-81
2020/12/02 11:53:56;;;;;;;;;;;4.00;99.90;;;;;;4986957;28;20378;-76
2020/12/02 11:56:27;;;;;;;;;;;4.00;99.90;;;;;;4985031;28;19922;-73
2020/12/02 11:59:03;;;;;;;;;;;4.00;99.90;;;;;;4985460;28;19909;-79
2020/12/02 12:01:31;;;;;;;;;;;4.10;99.90;;;;;;4983282;28;20071;-85
2020/12/02 12:04:07;;;;;;;;;;;4.00;99.90;;;;;;4988376;28;19914;-84
2020/12/02 12:06:33;;;;;;;;;;;4.10;99.90;;;;;;4988570;28;20375;-83
2020/12/02 12:09:11;;;;;;;;;;;4.10;99.90;;;;;;4987546;28;19921;-85
2020/12/02 12:11:38;;;;;;;;;;;3.90;99.90;;;;;;4986190;28;19925;-76
2020/12/02 12:14:09;;;;;;;;;;;3.90;99.90;;;;;;4987680;28;19918;-79
2020/12/02 12:16:40;;;;;;;;;;;3.90;99.90;;;;;;4985801;28;20005;-83
2020/12/02 12:19:09;;;;;;;;;;;3.80;99.90;;;;;;4988743;28;19910;-82
2020/12/02 12:21:41;;;;;;;;;;;3.70;99.90;;;;;;4986266;28;19956;-78
2020/12/02 12:24:09;;;;;;;;;;;3.70;99.90;;;;;;4985752;28;20008;-80
2020/12/02 12:26:40;;;;;;;;;;;3.70;99.90;;;;;;4982534;28;22287;-79
2020/12/02 12:29:10;;;;;;;;;;;3.80;99.90;;;;;;4988342;28;19957;-78
2020/12/02 12:31:54;;;;;;;;;;;3.80;99.90;;;;;;4987399;28;19944;-78
2020/12/02 12:34:28;;;;;;;;;;;3.80;99.90;;;;;;4989067;28;20004;-78
2020/12/02 12:36:57;;;;;;;;;;;3.80;99.90;;;;;;4985702;28;19914;-75
2020/12/02 12:39:34;;;;;;;;;;;3.80;99.90;;;;;;4985073;28;19914;-75
2020/12/02 12:42:00;;;;;;;;;;;3.90;99.90;;;;;;4986685;28;19918;-75
2020/12/02 12:44:31;;;;;;;;;;;4.00;99.90;;;;;;4986759;28;19956;-76
2020/12/02 12:47:17;;;;;;;;;;;4.10;99.90;;;;;;4986852;28;20380;-76
2020/12/02 12:49:42;;;;;;;;;;;4.10;99.90;;;;;;4978972;28;19980;-75
2020/12/02 12:52:11;;;;;;;;;;;4.30;99.90;;;;;;4987989;28;20669;-77
2020/12/02 12:54:37;;;;;;;;;;;4.40;99.90;;;;;;4984899;28;19922;-79
2020/12/02 12:57:02;;;;;;;;;;;4.50;99.90;;;;;;4983737;28;19916;-76
2020/12/02 12:59:32;;;;;;;;;;;4.50;99.90;;;;;;4984627;28;19911;-78
2020/12/02 13:01:57;;;;;;;;;;;4.50;99.90;;;;;;4988355;28;19932;-77
2020/12/02 13:04:24;;;;;;;;;;;4.40;99.90;;;;;;4986304;28;20374;-77
2020/12/02 13:07:04;;;;;;;;;;;4.50;99.90;;;;;;4982336;28;19910;-75
2020/12/02 13:09:29;;;;;;;;;;;4.50;99.90;;;;;;4990843;28;20370;-82
2020/12/02 13:12:03;;;;;;;;;;;4.50;99.90;;;;;;4988361;28;19961;-80
2020/12/02 13:14:31;;;;;;;;;;;4.50;99.90;;;;;;4987684;28;19967;-80
2020/12/02 13:17:15;;;;;;;;;;;4.50;99.90;;;;;;4985671;28;19914;-80
2020/12/02 13:19:49;;;;;;;;;;;4.50;99.90;;;;;;4974963;28;19928;-79
2020/12/02 13:22:21;;;;;;;;;;;4.50;99.90;;;;;;4978267;28;19914;-79
2020/12/02 13:25:03;;;;;;;;;;;4.40;99.90;;;;;;4979413;28;19922;-77
2020/12/02 13:27:46;;;;;;;;;;;4.40;99.90;;;;;;4990652;28;19910;-78
2020/12/02 13:30:12;;;;;;;;;;;4.30;99.90;;;;;;4991359;28;20316;-79
2020/12/02 13:32:43;;;;;;;;;;;4.30;99.90;;;;;;4988462;28;20297;-79
2020/12/02 13:35:09;;;;;;;;;;;4.40;99.90;;;;;;4987718;28;20433;-78
2020/12/02 13:37:35;;;;;;;;;;;4.40;99.90;;;;;;4983641;28;20001;-78
2020/12/02 13:40:01;;;;;;;;;;;4.40;99.90;;;;;;4986486;28;20009;-79
2020/12/02 13:42:26;;;;;;;;;;;4.50;99.90;;;;;;4991195;28;19914;-79
2020/12/02 13:44:57;;;;;;;;;;;4.50;99.90;;;;;;4987489;28;19918;-76
2020/12/02 13:47:23;;;;;;;;;;;4.50;99.90;;;;;;4985912;28;20009;-74
2020/12/02 13:49:49;;;;;;;;;;;4.50;99.90;;;;;;4987730;28;19910;-78
2020/12/02 13:52:28;;;;;;;;;;;4.50;99.90;;;;;;4985900;28;19914;-74
2020/12/02 13:55:00;;;;;;;;;;;4.40;99.90;;;;;;4990546;28;19926;-79
2020/12/02 13:57:38;;;;;;;;;;;4.30;99.90;;;;;;4984867;28;20255;-78
2020/12/02 14:00:10;;;;;;;;;;;4.30;99.90;;;;;;4987038;28;19914;-76
2020/12/02 14:02:47;;;;;;;;;;;4.30;99.90;;;;;;4989637;28;19916;-75
2020/12/02 14:05:19;;;;;;;;;;;4.30;99.90;;;;;;4987816;28;20020;-78
2020/12/02 14:07:46;;;;;;;;;;;4.30;99.90;;;;;;4989414;28;20435;-74
2020/12/02 14:10:12;;;;;;;;;;;4.20;99.90;;;;;;4989462;28;20383;-73
2020/12/02 14:12:39;;;;;;;;;;;4.20;99.90;;;;;;4989066;28;19917;-78
2020/12/02 14:15:06;;;;;;;;;;;4.10;99.90;;;;;;4990210;28;19922;-75
2020/12/02 14:17:31;;;;;;;;;;;4.10;99.90;;;;;;4990183;28;20007;-76
2020/12/02 14:19:57;;;;;;;;;;;4.00;99.90;;;;;;4987509;28;20008;-73
2020/12/02 14:22:29;;;;;;;;;;;4.00;99.90;;;;;;4988435;28;19914;-78
2020/12/02 14:24:57;;;;;;;;;;;3.90;99.90;;;;;;4986596;28;20017;-74
2020/12/02 14:27:43;;;;;;;;;;;3.90;99.90;;;;;;4990684;28;19922;-74
2020/12/02 14:30:18;;;;;;;;;;;3.90;99.90;;;;;;4986822;28;19914;-74
2020/12/02 14:32:44;;;;;;;;;;;3.90;99.90;;;;;;4984099;28;19914;-74
2020/12/02 14:35:10;;;;;;;;;;;3.90;99.90;;;;;;4988258;28;19925;-79
2020/12/02 14:37:35;;;;;;;;;;;3.90;99.90;;;;;;4986571;28;19910;-79
2020/12/02 14:40:02;;;;;;;;;;;4.00;99.90;;;;;;4985517;28;20012;-78
2020/12/02 14:42:28;;;;;;;;;;;4.00;99.90;;;;;;4988197;28;20047;-73
2020/12/02 14:44:53;;;;;;;;;;;4.00;99.90;;;;;;4989283;28;20008;-74